sensor_id;sensor_type;location;lat;lon;timestamp;P1;durP1;ratioP1;P2;durP2;ratioP2
21810;SDS011;11067;48.788;9.208;2023-04-15T00:00:13;6.07;;;3.50;;
21810;SDS011;11067;48.788;9.208;2023-04-15T00:02:39;8.05;;;3.55;;
21810;SDS011;11067;48.788;9.208;2023-04-15T00:05:05;7.30;;;4.07;;
21810;SDS011;11067;48.788;9.208;2023-04-15T00:07:31;10.30;;;3.87;;
21810;SDS011;11067;48.788;9.208;2023-04-15T00:09:57;8.43;;;4.00;;
21810;SDS011;11067;48.788;9.208;2023-04-15T00:12:23;9.65;;;3.78;;
21810;SDS011;11067;48.788;9.208;2023-04-15T00:14:49;8.05;;;3.80;;
21810;SDS011;11067;48.788;9.208;2023-04-15T00:17:15;9.02;;;3.95;;
21810;SDS011;11067;48.788;9.208;2023-04-15T00:19:41;5.75;;;3.08;;
21810;SDS011;11067;48.788;9.208;2023-04-15T00:22:08;7.40;;;3.83;;
21810;SDS011;11067;48.788;9.208;2023-04-15T00:24:34;6.97;;;4.00;;
21810;SDS011;11067;48.788;9.208;2023-04-15T00:26:59;7.20;;;3.80;;
21810;SDS011;11067;48.788;9.208;2023-04-15T00:29:25;6.90;;;3.72;;
21810;SDS011;11067;48.788;9.208;2023-04-15T00:31:50;8.35;;;3.50;;
21810;SDS011;11067;48.788;9.208;2023-04-15T00:34:16;5.13;;;3.40;;
21810;SDS011;11067;48.788;9.208;2023-04-15T00:36:42;7.53;;;3.87;;
21810;SDS011;11067;48.788;9.208;2023-04-15T00:39:07;6.93;;;3.60;;
21810;SDS011;11067;48.788;9.208;2023-04-15T00:41:33;6.20;;;3.43;;
21810;SDS011;11067;48.788;9.208;2023-04-15T00:43:59;7.40;;;3.53;;
21810;SDS011;11067;48.788;9.208;2023-04-15T00:46:27;7.63;;;3.70;;
21810;SDS011;11067;48.788;9.208;2023-04-15T00:48:55;9.10;;;4.47;;
21810;SDS011;11067;48.788;9.208;2023-04-15T00:51:21;5.97;;;3.90;;
21810;SDS011;11067;48.788;9.208;2023-04-15T00:53:46;6.83;;;3.60;;
21810;SDS011;11067;48.788;9.208;2023-04-15T00:56:12;7.70;;;4.20;;
21810;SDS011;11067;48.788;9.208;2023-04-15T00:58:38;8.23;;;4.20;;
21810;SDS011;11067;48.788;9.208;2023-04-15T01:01:03;5.73;;;3.97;;
21810;SDS011;11067;48.788;9.208;2023-04-15T01:03:29;8.97;;;4.10;;
21810;SDS011;11067;48.788;9.208;2023-04-15T01:05:55;8.13;;;3.80;;
21810;SDS011;11067;48.788;9.208;2023-04-15T01:08:25;5.22;;;3.92;;
21810;SDS011;11067;48.788;9.208;2023-04-15T01:10:58;9.37;;;3.70;;
21810;SDS011;11067;48.788;9.208;2023-04-15T01:13:27;5.70;;;3.90;;
21810;SDS011;11067;48.788;9.208;2023-04-15T01:15:53;6.32;;;3.55;;
21810;SDS011;11067;48.788;9.208;2023-04-15T01:18:21;9.95;;;3.95;;
21810;SDS011;11067;48.788;9.208;2023-04-15T01:20:47;10.52;;;4.25;;
21810;SDS011;11067;48.788;9.208;2023-04-15T01:23:13;10.13;;;4.25;;
21810;SDS011;11067;48.788;9.208;2023-04-15T01:25:39;9.02;;;3.78;;
21810;SDS011;11067;48.788;9.208;2023-04-15T01:28:05;14.45;;;4.50;;
21810;SDS011;11067;48.788;9.208;2023-04-15T01:30:33;8.45;;;4.47;;
21810;SDS011;11067;48.788;9.208;2023-04-15T01:32:59;7.60;;;4.20;;
21810;SDS011;11067;48.788;9.208;2023-04-15T01:35:25;9.55;;;4.38;;
21810;SDS011;11067;48.788;9.208;2023-04-15T01:37:51;9.70;;;4.30;;
21810;SDS011;11067;48.788;9.208;2023-04-15T01:40:18;7.67;;;3.77;;
21810;SDS011;11067;48.788;9.208;2023-04-15T01:42:44;8.10;;;3.80;;
21810;SDS011;11067;48.788;9.208;2023-04-15T01:45:10;8.07;;;4.18;;
21810;SDS011;11067;48.788;9.208;2023-04-15T01:47:37;8.00;;;4.10;;
21810;SDS011;11067;48.788;9.208;2023-04-15T01:50:02;9.10;;;4.10;;
21810;SDS011;11067;48.788;9.208;2023-04-15T01:52:28;8.85;;;4.20;;
21810;SDS011;11067;48.788;9.208;2023-04-15T01:54:54;6.80;;;4.47;;
21810;SDS011;11067;48.788;9.208;2023-04-15T01:57:20;8.15;;;3.83;;
21810;SDS011;11067;48.788;9.208;2023-04-15T01:59:45;8.52;;;4.00;;
21810;SDS011;11067;48.788;9.208;2023-04-15T02:02:11;9.10;;;4.27;;
21810;SDS011;11067;48.788;9.208;2023-04-15T02:04:36;6.17;;;4.00;;
21810;SDS011;11067;48.788;9.208;2023-04-15T02:07:02;9.23;;;4.30;;
21810;SDS011;11067;48.788;9.208;2023-04-15T02:09:27;7.97;;;4.30;;
21810;SDS011;11067;48.788;9.208;2023-04-15T02:11:53;6.75;;;3.80;;
21810;SDS011;11067;48.788;9.208;2023-04-15T02:14:19;6.90;;;3.77;;
21810;SDS011;11067;48.788;9.208;2023-04-15T02:16:45;9.70;;;4.60;;
21810;SDS011;11067;48.788;9.208;2023-04-15T02:19:10;8.27;;;4.18;;
21810;SDS011;11067;48.788;9.208;2023-04-15T02:21:36;7.20;;;4.05;;
21810;SDS011;11067;48.788;9.208;2023-04-15T02:24:02;8.23;;;4.07;;
21810;SDS011;11067;48.788;9.208;2023-04-15T02:26:28;7.32;;;4.50;;
21810;SDS011;11067;48.788;9.208;2023-04-15T02:28:56;7.88;;;4.18;;
21810;SDS011;11067;48.788;9.208;2023-04-15T02:31:22;8.47;;;4.57;;
21810;SDS011;11067;48.788;9.208;2023-04-15T02:33:47;7.40;;;4.70;;
21810;SDS011;11067;48.788;9.208;2023-04-15T02:36:13;7.15;;;4.22;;
21810;SDS011;11067;48.788;9.208;2023-04-15T02:38:38;8.68;;;4.32;;
21810;SDS011;11067;48.788;9.208;2023-04-15T02:41:06;7.67;;;4.60;;
21810;SDS011;11067;48.788;9.208;2023-04-15T02:43:32;7.18;;;4.05;;
21810;SDS011;11067;48.788;9.208;2023-04-15T02:45:58;6.43;;;4.07;;
21810;SDS011;11067;48.788;9.208;2023-04-15T02:48:23;7.25;;;4.25;;
21810;SDS011;11067;48.788;9.208;2023-04-15T02:50:49;8.73;;;4.57;;
21810;SDS011;11067;48.788;9.208;2023-04-15T02:53:14;9.13;;;4.60;;
21810;SDS011;11067;48.788;9.208;2023-04-15T02:55:41;7.47;;;4.33;;
21810;SDS011;11067;48.788;9.208;2023-04-15T02:58:06;7.97;;;4.27;;
21810;SDS011;11067;48.788;9.208;2023-04-15T03:00:32;7.60;;;4.80;;
21810;SDS011;11067;48.788;9.208;2023-04-15T03:03:00;9.87;;;4.50;;
21810;SDS011;11067;48.788;9.208;2023-04-15T03:05:27;8.87;;;4.63;;
21810;SDS011;11067;48.788;9.208;2023-04-15T03:07:52;7.83;;;4.70;;
21810;SDS011;11067;48.788;9.208;2023-04-15T03:10:18;7.43;;;4.83;;
21810;SDS011;11067;48.788;9.208;2023-04-15T03:12:44;7.32;;;4.53;;
21810;SDS011;11067;48.788;9.208;2023-04-15T03:15:10;11.30;;;4.80;;
21810;SDS011;11067;48.788;9.208;2023-04-15T03:17:36;8.57;;;4.25;;
21810;SDS011;11067;48.788;9.208;2023-04-15T03:20:02;8.93;;;4.50;;
21810;SDS011;11067;48.788;9.208;2023-04-15T03:22:29;7.50;;;4.40;;
21810;SDS011;11067;48.788;9.208;2023-04-15T03:24:55;9.10;;;4.70;;
21810;SDS011;11067;48.788;9.208;2023-04-15T03:27:21;7.10;;;4.43;;
21810;SDS011;11067;48.788;9.208;2023-04-15T03:29:46;8.43;;;4.77;;
21810;SDS011;11067;48.788;9.208;2023-04-15T03:32:12;9.77;;;4.53;;
21810;SDS011;11067;48.788;9.208;2023-04-15T03:34:39;10.20;;;5.00;;
21810;SDS011;11067;48.788;9.208;2023-04-15T03:37:05;6.95;;;4.93;;
21810;SDS011;11067;48.788;9.208;2023-04-15T03:39:30;11.63;;;4.90;;
21810;SDS011;11067;48.788;9.208;2023-04-15T03:41:56;10.25;;;4.78;;
21810;SDS011;11067;48.788;9.208;2023-04-15T03:44:23;9.20;;;4.65;;
21810;SDS011;11067;48.788;9.208;2023-04-15T03:46:48;10.67;;;5.17;;
21810;SDS011;11067;48.788;9.208;2023-04-15T03:49:14;10.65;;;5.30;;
21810;SDS011;11067;48.788;9.208;2023-04-15T03:51:40;10.55;;;5.43;;
21810;SDS011;11067;48.788;9.208;2023-04-15T03:54:05;7.87;;;5.20;;
21810;SDS011;11067;48.788;9.208;2023-04-15T03:56:31;7.77;;;4.90;;
21810;SDS011;11067;48.788;9.208;2023-04-15T03:58:56;8.40;;;5.23;;
21810;SDS011;11067;48.788;9.208;2023-04-15T04:01:22;9.85;;;5.50;;
21810;SDS011;11067;48.788;9.208;2023-04-15T04:03:47;10.93;;;5.35;;
21810;SDS011;11067;48.788;9.208;2023-04-15T04:06:13;9.13;;;5.20;;
21810;SDS011;11067;48.788;9.208;2023-04-15T04:08:39;11.27;;;4.90;;
21810;SDS011;11067;48.788;9.208;2023-04-15T04:11:05;11.23;;;5.67;;
21810;SDS011;11067;48.788;9.208;2023-04-15T04:13:30;12.03;;;5.43;;
21810;SDS011;11067;48.788;9.208;2023-04-15T04:15:56;8.63;;;5.53;;
21810;SDS011;11067;48.788;9.208;2023-04-15T04:18:21;10.82;;;5.30;;
21810;SDS011;11067;48.788;9.208;2023-04-15T04:20:47;9.82;;;5.60;;
21810;SDS011;11067;48.788;9.208;2023-04-15T04:23:13;10.38;;;5.20;;
21810;SDS011;11067;48.788;9.208;2023-04-15T04:25:38;9.00;;;5.93;;
21810;SDS011;11067;48.788;9.208;2023-04-15T04:28:04;12.47;;;5.47;;
21810;SDS011;11067;48.788;9.208;2023-04-15T04:30:29;14.47;;;6.43;;
21810;SDS011;11067;48.788;9.208;2023-04-15T04:32:55;10.53;;;6.00;;
21810;SDS011;11067;48.788;9.208;2023-04-15T04:35:20;12.37;;;6.40;;
21810;SDS011;11067;48.788;9.208;2023-04-15T04:37:46;10.63;;;5.93;;
21810;SDS011;11067;48.788;9.208;2023-04-15T04:40:12;14.73;;;6.23;;
21810;SDS011;11067;48.788;9.208;2023-04-15T04:42:37;11.70;;;5.63;;
21810;SDS011;11067;48.788;9.208;2023-04-15T04:45:04;11.95;;;5.78;;
21810;SDS011;11067;48.788;9.208;2023-04-15T04:47:30;9.63;;;5.35;;
21810;SDS011;11067;48.788;9.208;2023-04-15T04:49:55;18.60;;;5.83;;
21810;SDS011;11067;48.788;9.208;2023-04-15T04:52:21;12.63;;;5.67;;
21810;SDS011;11067;48.788;9.208;2023-04-15T04:54:46;10.00;;;5.43;;
21810;SDS011;11067;48.788;9.208;2023-04-15T04:57:12;14.40;;;6.00;;
21810;SDS011;11067;48.788;9.208;2023-04-15T04:59:38;12.77;;;6.28;;
21810;SDS011;11067;48.788;9.208;2023-04-15T05:02:03;18.88;;;6.65;;
21810;SDS011;11067;48.788;9.208;2023-04-15T05:04:29;10.05;;;5.82;;
21810;SDS011;11067;48.788;9.208;2023-04-15T05:06:56;11.68;;;5.93;;
21810;SDS011;11067;48.788;9.208;2023-04-15T05:09:21;9.82;;;5.50;;
21810;SDS011;11067;48.788;9.208;2023-04-15T05:11:47;11.97;;;6.00;;
21810;SDS011;11067;48.788;9.208;2023-04-15T05:14:13;12.13;;;6.07;;
21810;SDS011;11067;48.788;9.208;2023-04-15T05:16:38;11.82;;;5.70;;
21810;SDS011;11067;48.788;9.208;2023-04-15T05:19:04;12.07;;;5.72;;
21810;SDS011;11067;48.788;9.208;2023-04-15T05:21:29;10.50;;;5.90;;
21810;SDS011;11067;48.788;9.208;2023-04-15T05:23:55;13.25;;;5.93;;
21810;SDS011;11067;48.788;9.208;2023-04-15T05:26:21;12.83;;;5.83;;
21810;SDS011;11067;48.788;9.208;2023-04-15T05:28:48;12.82;;;5.97;;
21810;SDS011;11067;48.788;9.208;2023-04-15T05:31:14;10.02;;;5.32;;
21810;SDS011;11067;48.788;9.208;2023-04-15T05:33:40;8.60;;;5.70;;
21810;SDS011;11067;48.788;9.208;2023-04-15T05:36:05;11.37;;;5.50;;
21810;SDS011;11067;48.788;9.208;2023-04-15T05:38:31;7.67;;;5.43;;
21810;SDS011;11067;48.788;9.208;2023-04-15T05:40:57;10.60;;;5.43;;
21810;SDS011;11067;48.788;9.208;2023-04-15T05:43:22;8.43;;;5.70;;
21810;SDS011;11067;48.788;9.208;2023-04-15T05:45:48;8.97;;;5.20;;
21810;SDS011;11067;48.788;9.208;2023-04-15T05:48:14;10.70;;;6.15;;
21810;SDS011;11067;48.788;9.208;2023-04-15T05:50:40;11.30;;;5.63;;
21810;SDS011;11067;48.788;9.208;2023-04-15T05:53:07;10.20;;;5.78;;
21810;SDS011;11067;48.788;9.208;2023-04-15T05:55:33;9.85;;;5.22;;
21810;SDS011;11067;48.788;9.208;2023-04-15T05:57:59;8.50;;;4.80;;
21810;SDS011;11067;48.788;9.208;2023-04-15T06:00:24;10.40;;;5.00;;
21810;SDS011;11067;48.788;9.208;2023-04-15T06:02:50;10.93;;;5.22;;
21810;SDS011;11067;48.788;9.208;2023-04-15T06:05:16;9.48;;;4.72;;
21810;SDS011;11067;48.788;9.208;2023-04-15T06:07:42;7.17;;;4.37;;
21810;SDS011;11067;48.788;9.208;2023-04-15T06:10:08;8.63;;;4.38;;
21810;SDS011;11067;48.788;9.208;2023-04-15T06:12:34;7.60;;;4.47;;
21810;SDS011;11067;48.788;9.208;2023-04-15T06:14:59;10.20;;;4.43;;
21810;SDS011;11067;48.788;9.208;2023-04-15T06:17:25;7.77;;;4.40;;
21810;SDS011;11067;48.788;9.208;2023-04-15T06:19:50;7.63;;;4.27;;
21810;SDS011;11067;48.788;9.208;2023-04-15T06:22:20;8.00;;;4.85;;
21810;SDS011;11067;48.788;9.208;2023-04-15T06:24:47;11.27;;;4.40;;
21810;SDS011;11067;48.788;9.208;2023-04-15T06:27:14;6.67;;;4.47;;
21810;SDS011;11067;48.788;9.208;2023-04-15T06:29:40;7.78;;;4.20;;
21810;SDS011;11067;48.788;9.208;2023-04-15T06:32:05;7.97;;;4.27;;
21810;SDS011;11067;48.788;9.208;2023-04-15T06:34:31;7.27;;;4.43;;
21810;SDS011;11067;48.788;9.208;2023-04-15T06:36:57;6.67;;;4.50;;
21810;SDS011;11067;48.788;9.208;2023-04-15T06:39:22;6.93;;;4.33;;
21810;SDS011;11067;48.788;9.208;2023-04-15T06:41:48;7.95;;;4.20;;
21810;SDS011;11067;48.788;9.208;2023-04-15T06:44:14;7.60;;;4.80;;
21810;SDS011;11067;48.788;9.208;2023-04-15T06:46:40;7.20;;;4.07;;
21810;SDS011;11067;48.788;9.208;2023-04-15T06:49:05;6.50;;;4.27;;
21810;SDS011;11067;48.788;9.208;2023-04-15T06:51:33;6.00;;;4.23;;
21810;SDS011;11067;48.788;9.208;2023-04-15T06:54:01;7.38;;;4.53;;
21810;SDS011;11067;48.788;9.208;2023-04-15T06:56:32;8.17;;;4.10;;
21810;SDS011;11067;48.788;9.208;2023-04-15T06:58:58;7.72;;;4.10;;
21810;SDS011;11067;48.788;9.208;2023-04-15T07:01:23;7.47;;;4.32;;
21810;SDS011;11067;48.788;9.208;2023-04-15T07:03:49;7.93;;;3.80;;
21810;SDS011;11067;48.788;9.208;2023-04-15T07:06:15;8.25;;;4.20;;
21810;SDS011;11067;48.788;9.208;2023-04-15T07:08:41;10.25;;;4.43;;
21810;SDS011;11067;48.788;9.208;2023-04-15T07:11:06;8.20;;;4.25;;
21810;SDS011;11067;48.788;9.208;2023-04-15T07:13:32;6.65;;;3.75;;
21810;SDS011;11067;48.788;9.208;2023-04-15T07:15:58;5.40;;;3.83;;
21810;SDS011;11067;48.788;9.208;2023-04-15T07:18:24;7.03;;;4.00;;
21810;SDS011;11067;48.788;9.208;2023-04-15T07:20:49;7.20;;;4.13;;
21810;SDS011;11067;48.788;9.208;2023-04-15T07:23:15;7.93;;;4.10;;
21810;SDS011;11067;48.788;9.208;2023-04-15T07:25:41;7.20;;;3.73;;
21810;SDS011;11067;48.788;9.208;2023-04-15T07:28:06;7.83;;;3.80;;
21810;SDS011;11067;48.788;9.208;2023-04-15T07:30:32;8.07;;;4.18;;
21810;SDS011;11067;48.788;9.208;2023-04-15T07:32:58;7.23;;;4.10;;
21810;SDS011;11067;48.788;9.208;2023-04-15T07:35:24;7.00;;;4.13;;
21810;SDS011;11067;48.788;9.208;2023-04-15T07:37:50;7.68;;;4.22;;
21810;SDS011;11067;48.788;9.208;2023-04-15T07:40:16;8.07;;;3.95;;
21810;SDS011;11067;48.788;9.208;2023-04-15T07:42:42;6.65;;;4.03;;
21810;SDS011;11067;48.788;9.208;2023-04-15T07:45:08;8.27;;;4.47;;
21810;SDS011;11067;48.788;9.208;2023-04-15T07:47:34;6.82;;;3.70;;
21810;SDS011;11067;48.788;9.208;2023-04-15T07:50:00;6.78;;;3.85;;
21810;SDS011;11067;48.788;9.208;2023-04-15T07:52:26;9.85;;;4.55;;
21810;SDS011;11067;48.788;9.208;2023-04-15T07:54:52;8.43;;;4.20;;
21810;SDS011;11067;48.788;9.208;2023-04-15T07:57:17;9.33;;;4.57;;
21810;SDS011;11067;48.788;9.208;2023-04-15T07:59:43;8.45;;;4.05;;
21810;SDS011;11067;48.788;9.208;2023-04-15T08:02:09;7.00;;;4.22;;
21810;SDS011;11067;48.788;9.208;2023-04-15T08:04:35;7.60;;;4.10;;
21810;SDS011;11067;48.788;9.208;2023-04-15T08:07:01;7.45;;;3.88;;
21810;SDS011;11067;48.788;9.208;2023-04-15T08:09:27;6.07;;;4.10;;
21810;SDS011;11067;48.788;9.208;2023-04-15T08:11:53;7.67;;;4.03;;
21810;SDS011;11067;48.788;9.208;2023-04-15T08:14:18;8.77;;;4.18;;
21810;SDS011;11067;48.788;9.208;2023-04-15T08:16:44;7.20;;;4.10;;
21810;SDS011;11067;48.788;9.208;2023-04-15T08:19:10;7.28;;;3.95;;
21810;SDS011;11067;48.788;9.208;2023-04-15T08:21:35;7.45;;;4.03;;
21810;SDS011;11067;48.788;9.208;2023-04-15T08:24:01;8.00;;;4.13;;
21810;SDS011;11067;48.788;9.208;2023-04-15T08:26:27;7.77;;;3.43;;
21810;SDS011;11067;48.788;9.208;2023-04-15T08:28:52;10.57;;;4.03;;
21810;SDS011;11067;48.788;9.208;2023-04-15T08:31:18;8.13;;;3.90;;
21810;SDS011;11067;48.788;9.208;2023-04-15T08:33:44;5.30;;;3.85;;
21810;SDS011;11067;48.788;9.208;2023-04-15T08:36:10;10.45;;;4.57;;
21810;SDS011;11067;48.788;9.208;2023-04-15T08:38:36;8.35;;;4.13;;
21810;SDS011;11067;48.788;9.208;2023-04-15T08:41:11;7.78;;;3.90;;
21810;SDS011;11067;48.788;9.208;2023-04-15T08:43:53;7.07;;;3.88;;
21810;SDS011;11067;48.788;9.208;2023-04-15T08:46:22;8.10;;;4.07;;
21810;SDS011;11067;48.788;9.208;2023-04-15T08:48:48;6.80;;;4.00;;
21810;SDS011;11067;48.788;9.208;2023-04-15T08:51:14;6.97;;;3.85;;
21810;SDS011;11067;48.788;9.208;2023-04-15T08:53:42;6.32;;;4.03;;
21810;SDS011;11067;48.788;9.208;2023-04-15T08:56:10;6.05;;;3.85;;
21810;SDS011;11067;48.788;9.208;2023-04-15T08:58:38;8.35;;;4.13;;
21810;SDS011;11067;48.788;9.208;2023-04-15T09:01:04;6.30;;;4.10;;
21810;SDS011;11067;48.788;9.208;2023-04-15T09:03:29;6.33;;;3.93;;
21810;SDS011;11067;48.788;9.208;2023-04-15T09:05:56;6.38;;;3.60;;
21810;SDS011;11067;48.788;9.208;2023-04-15T09:08:22;8.67;;;4.00;;
21810;SDS011;11067;48.788;9.208;2023-04-15T09:10:48;7.50;;;3.80;;
21810;SDS011;11067;48.788;9.208;2023-04-15T09:13:14;7.22;;;3.38;;
21810;SDS011;11067;48.788;9.208;2023-04-15T09:15:39;7.20;;;4.15;;
21810;SDS011;11067;48.788;9.208;2023-04-15T09:18:05;5.43;;;3.45;;
21810;SDS011;11067;48.788;9.208;2023-04-15T09:20:37;6.07;;;3.35;;
21810;SDS011;11067;48.788;9.208;2023-04-15T09:23:12;4.20;;;3.17;;
21810;SDS011;11067;48.788;9.208;2023-04-15T09:25:39;6.88;;;3.40;;
21810;SDS011;11067;48.788;9.208;2023-04-15T09:28:08;6.60;;;3.27;;
21810;SDS011;11067;48.788;9.208;2023-04-15T09:30:34;4.68;;;2.67;;
21810;SDS011;11067;48.788;9.208;2023-04-15T09:33:01;6.32;;;3.15;;
21810;SDS011;11067;48.788;9.208;2023-04-15T09:35:28;7.50;;;3.17;;
21810;SDS011;11067;48.788;9.208;2023-04-15T09:38:06;6.20;;;2.75;;
21810;SDS011;11067;48.788;9.208;2023-04-15T09:40:34;7.00;;;2.80;;
21810;SDS011;11067;48.788;9.208;2023-04-15T09:43:04;3.22;;;2.58;;
21810;SDS011;11067;48.788;9.208;2023-04-15T09:45:31;4.55;;;2.80;;
21810;SDS011;11067;48.788;9.208;2023-04-15T09:47:58;5.55;;;2.92;;
21810;SDS011;11067;48.788;9.208;2023-04-15T09:50:39;4.97;;;2.80;;
21810;SDS011;11067;48.788;9.208;2023-04-15T09:53:08;3.10;;;2.20;;
21810;SDS011;11067;48.788;9.208;2023-04-15T09:55:42;3.80;;;2.22;;
21810;SDS011;11067;48.788;9.208;2023-04-15T09:58:16;3.70;;;2.28;;
21810;SDS011;11067;48.788;9.208;2023-04-15T10:00:47;5.25;;;2.10;;
21810;SDS011;11067;48.788;9.208;2023-04-15T10:03:18;3.17;;;1.92;;
21810;SDS011;11067;48.788;9.208;2023-04-15T10:05:46;2.55;;;1.80;;
21810;SDS011;11067;48.788;9.208;2023-04-15T10:08:14;2.33;;;2.00;;
21810;SDS011;11067;48.788;9.208;2023-04-15T10:10:41;3.23;;;2.10;;
21810;SDS011;11067;48.788;9.208;2023-04-15T10:13:08;4.83;;;2.33;;
21810;SDS011;11067;48.788;9.208;2023-04-15T10:15:35;4.13;;;2.58;;
21810;SDS011;11067;48.788;9.208;2023-04-15T10:18:01;3.73;;;2.30;;
21810;SDS011;11067;48.788;9.208;2023-04-15T10:20:29;2.77;;;2.27;;
21810;SDS011;11067;48.788;9.208;2023-04-15T10:22:55;2.90;;;2.00;;
21810;SDS011;11067;48.788;9.208;2023-04-15T10:25:21;5.57;;;2.40;;
21810;SDS011;11067;48.788;9.208;2023-04-15T10:27:49;3.38;;;2.58;;
21810;SDS011;11067;48.788;9.208;2023-04-15T10:30:16;5.70;;;2.70;;
21810;SDS011;11067;48.788;9.208;2023-04-15T10:32:43;3.58;;;2.63;;
21810;SDS011;11067;48.788;9.208;2023-04-15T10:35:09;3.13;;;2.60;;
21810;SDS011;11067;48.788;9.208;2023-04-15T10:37:36;3.58;;;2.28;;
21810;SDS011;11067;48.788;9.208;2023-04-15T10:43:01;5.10;;;2.85;;
21810;SDS011;11067;48.788;9.208;2023-04-15T10:45:31;4.05;;;2.38;;
21810;SDS011;11067;48.788;9.208;2023-04-15T10:47:59;5.32;;;2.20;;
21810;SDS011;11067;48.788;9.208;2023-04-15T10:50:26;3.95;;;2.40;;
21810;SDS011;11067;48.788;9.208;2023-04-15T10:52:54;6.78;;;2.15;;
21810;SDS011;11067;48.788;9.208;2023-04-15T10:55:21;5.72;;;2.33;;
21810;SDS011;11067;48.788;9.208;2023-04-15T10:57:57;3.22;;;1.92;;
21810;SDS011;11067;48.788;9.208;2023-04-15T11:00:24;6.03;;;2.23;;
21810;SDS011;11067;48.788;9.208;2023-04-15T11:02:57;4.30;;;2.33;;
21810;SDS011;11067;48.788;9.208;2023-04-15T11:05:49;5.97;;;2.30;;
21810;SDS011;11067;48.788;9.208;2023-04-15T11:08:16;3.17;;;2.40;;
21810;SDS011;11067;48.788;9.208;2023-04-15T11:20:41;4.53;;;2.60;;
21810;SDS011;11067;48.788;9.208;2023-04-15T11:23:11;4.78;;;2.55;;
21810;SDS011;11067;48.788;9.208;2023-04-15T11:25:37;3.80;;;2.38;;
21810;SDS011;11067;48.788;9.208;2023-04-15T11:28:03;5.93;;;2.97;;
21810;SDS011;11067;48.788;9.208;2023-04-15T11:30:29;4.07;;;2.78;;
21810;SDS011;11067;48.788;9.208;2023-04-15T11:32:58;5.97;;;2.72;;
21810;SDS011;11067;48.788;9.208;2023-04-15T11:35:25;5.57;;;2.67;;
21810;SDS011;11067;48.788;9.208;2023-04-15T11:37:51;6.00;;;2.85;;
21810;SDS011;11067;48.788;9.208;2023-04-15T11:40:21;3.13;;;2.15;;
21810;SDS011;11067;48.788;9.208;2023-04-15T11:43:02;4.22;;;2.45;;
21810;SDS011;11067;48.788;9.208;2023-04-15T11:45:28;3.47;;;2.00;;
21810;SDS011;11067;48.788;9.208;2023-04-15T11:47:54;3.72;;;2.58;;
21810;SDS011;11067;48.788;9.208;2023-04-15T11:50:28;3.95;;;2.50;;
21810;SDS011;11067;48.788;9.208;2023-04-15T11:52:57;4.88;;;2.60;;
21810;SDS011;11067;48.788;9.208;2023-04-15T11:55:25;6.40;;;2.50;;
21810;SDS011;11067;48.788;9.208;2023-04-15T11:58:13;4.37;;;2.97;;
21810;SDS011;11067;48.788;9.208;2023-04-15T12:00:44;4.03;;;3.10;;
21810;SDS011;11067;48.788;9.208;2023-04-15T12:06:22;3.72;;;2.90;;
21810;SDS011;11067;48.788;9.208;2023-04-15T12:11:20;4.38;;;2.92;;
21810;SDS011;11067;48.788;9.208;2023-04-15T12:14:11;5.72;;;3.00;;
21810;SDS011;11067;48.788;9.208;2023-04-15T12:16:46;3.63;;;2.73;;
21810;SDS011;11067;48.788;9.208;2023-04-15T12:19:13;5.72;;;3.05;;
21810;SDS011;11067;48.788;9.208;2023-04-15T12:21:44;2.72;;;2.30;;
21810;SDS011;11067;48.788;9.208;2023-04-15T12:24:11;5.13;;;2.40;;
21810;SDS011;11067;48.788;9.208;2023-04-15T12:26:42;3.87;;;2.30;;
21810;SDS011;11067;48.788;9.208;2023-04-15T12:29:09;5.70;;;2.60;;
21810;SDS011;11067;48.788;9.208;2023-04-15T12:31:36;2.35;;;1.80;;
21810;SDS011;11067;48.788;9.208;2023-04-15T12:34:11;4.33;;;2.13;;
21810;SDS011;11067;48.788;9.208;2023-04-15T12:36:38;7.65;;;3.03;;
21810;SDS011;11067;48.788;9.208;2023-04-15T12:39:04;5.70;;;3.22;;
21810;SDS011;11067;48.788;9.208;2023-04-15T12:41:30;5.30;;;3.13;;
21810;SDS011;11067;48.788;9.208;2023-04-15T12:43:56;4.20;;;3.30;;
21810;SDS011;11067;48.788;9.208;2023-04-15T12:46:22;4.60;;;3.03;;
21810;SDS011;11067;48.788;9.208;2023-04-15T12:48:48;6.63;;;3.50;;
21810;SDS011;11067;48.788;9.208;2023-04-15T12:51:15;4.90;;;3.35;;
21810;SDS011;11067;48.788;9.208;2023-04-15T12:53:40;4.82;;;3.45;;
21810;SDS011;11067;48.788;9.208;2023-04-15T12:56:06;5.55;;;3.35;;
21810;SDS011;11067;48.788;9.208;2023-04-15T12:58:31;4.73;;;3.90;;
21810;SDS011;11067;48.788;9.208;2023-04-15T13:00:57;7.30;;;3.67;;
21810;SDS011;11067;48.788;9.208;2023-04-15T13:03:23;7.20;;;3.97;;
21810;SDS011;11067;48.788;9.208;2023-04-15T13:05:48;5.60;;;3.37;;
21810;SDS011;11067;48.788;9.208;2023-04-15T13:08:14;5.55;;;3.75;;
21810;SDS011;11067;48.788;9.208;2023-04-15T13:10:40;5.35;;;3.25;;
21810;SDS011;11067;48.788;9.208;2023-04-15T13:13:06;4.55;;;3.28;;
21810;SDS011;11067;48.788;9.208;2023-04-15T13:15:32;5.23;;;3.30;;
21810;SDS011;11067;48.788;9.208;2023-04-15T13:17:58;4.90;;;3.17;;
21810;SDS011;11067;48.788;9.208;2023-04-15T13:20:24;6.22;;;3.30;;
21810;SDS011;11067;48.788;9.208;2023-04-15T13:22:51;2.90;;;2.43;;
21810;SDS011;11067;48.788;9.208;2023-04-15T13:25:17;3.72;;;2.50;;
21810;SDS011;11067;48.788;9.208;2023-04-15T13:27:42;3.10;;;2.20;;
21810;SDS011;11067;48.788;9.208;2023-04-15T13:30:08;3.80;;;2.33;;
21810;SDS011;11067;48.788;9.208;2023-04-15T13:32:34;4.53;;;2.00;;
21810;SDS011;11067;48.788;9.208;2023-04-15T13:34:59;3.80;;;2.37;;
21810;SDS011;11067;48.788;9.208;2023-04-15T13:37:28;3.72;;;2.15;;
21810;SDS011;11067;48.788;9.208;2023-04-15T13:39:55;5.20;;;2.35;;
21810;SDS011;11067;48.788;9.208;2023-04-15T13:42:21;4.72;;;2.40;;
21810;SDS011;11067;48.788;9.208;2023-04-15T13:44:49;4.40;;;2.05;;
21810;SDS011;11067;48.788;9.208;2023-04-15T13:47:15;4.45;;;2.00;;
21810;SDS011;11067;48.788;9.208;2023-04-15T13:49:42;1.42;;;1.30;;
21810;SDS011;11067;48.788;9.208;2023-04-15T13:52:08;2.47;;;1.30;;
21810;SDS011;11067;48.788;9.208;2023-04-15T13:54:33;2.63;;;1.20;;
21810;SDS011;11067;48.788;9.208;2023-04-15T13:56:59;1.73;;;1.27;;
21810;SDS011;11067;48.788;9.208;2023-04-15T13:59:25;2.47;;;1.13;;
21810;SDS011;11067;48.788;9.208;2023-04-15T14:01:51;0.90;;;0.90;;
21810;SDS011;11067;48.788;9.208;2023-04-15T14:04:17;1.00;;;0.90;;
21810;SDS011;11067;48.788;9.208;2023-04-15T14:06:42;2.83;;;1.17;;
21810;SDS011;11067;48.788;9.208;2023-04-15T14:09:08;1.02;;;0.93;;
21810;SDS011;11067;48.788;9.208;2023-04-15T14:11:34;3.58;;;1.15;;
21810;SDS011;11067;48.788;9.208;2023-04-15T14:14:00;1.65;;;1.15;;
21810;SDS011;11067;48.788;9.208;2023-04-15T14:16:26;1.80;;;1.00;;
21810;SDS011;11067;48.788;9.208;2023-04-15T14:18:52;2.20;;;0.97;;
21810;SDS011;11067;48.788;9.208;2023-04-15T14:21:17;2.03;;;0.98;;
21810;SDS011;11067;48.788;9.208;2023-04-15T14:23:43;0.98;;;0.80;;
21810;SDS011;11067;48.788;9.208;2023-04-15T14:26:09;1.58;;;0.90;;
21810;SDS011;11067;48.788;9.208;2023-04-15T14:28:34;1.40;;;1.07;;
21810;SDS011;11067;48.788;9.208;2023-04-15T14:31:02;0.80;;;0.80;;
21810;SDS011;11067;48.788;9.208;2023-04-15T14:33:27;1.10;;;0.80;;
21810;SDS011;11067;48.788;9.208;2023-04-15T14:35:53;2.30;;;1.23;;
21810;SDS011;11067;48.788;9.208;2023-04-15T14:38:18;0.97;;;0.87;;
21810;SDS011;11067;48.788;9.208;2023-04-15T14:40:46;0.82;;;0.82;;
21810;SDS011;11067;48.788;9.208;2023-04-15T14:43:12;2.70;;;0.93;;
21810;SDS011;11067;48.788;9.208;2023-04-15T14:45:37;1.20;;;1.00;;
21810;SDS011;11067;48.788;9.208;2023-04-15T14:48:03;3.70;;;1.50;;
21810;SDS011;11067;48.788;9.208;2023-04-15T14:50:30;1.13;;;1.02;;
21810;SDS011;11067;48.788;9.208;2023-04-15T14:52:55;1.87;;;1.17;;
21810;SDS011;11067;48.788;9.208;2023-04-15T14:55:22;0.80;;;0.75;;
21810;SDS011;11067;48.788;9.208;2023-04-15T14:57:47;1.20;;;1.00;;
21810;SDS011;11067;48.788;9.208;2023-04-15T15:00:13;1.40;;;1.00;;